LSZHLSMD

Guest
Details From LSZH - Zurich
To LSMD - Duebendorf
Flight Number -
Tags generated
Created
Modified
Stats Distance 5 nm / 10 km
Max Altitude 0 ft / 0 m
Waypoints 2
Social Downloads 2
Likes 0
Share VATSIM

Download

Looking for another format? Having issues loading an existing format? Contact us
Advertisement - Login to hide

Notes

Basic altitude profile: - Ascent Rate: 2500ft/min - Ascent Speed: 250kts - Cruise Altitude: 35000ft - Cruise Speed: 420kts - Descent Rate: 1500ft/min - Descent Speed: 250kts Options: - Use NATs: yes - Use PACOTS: yes - Use low airways: yes - Use high airways: yes

Route

LSZH LSMD

ID Type Via Altitude Latitude Longitude Leg Dist Tot Dist Heading (true) Name
O LSZH APT - 0 ft / 0 m 47.46349˚ 8.54996˚ - 0 nm - Zurich
O LSMD APT - 0 ft / 0 m 47.39830˚ 8.64499˚ 5 nm 5 nm 135° / 135° Duebendorf

Altitude Profile

Advertisement - Login to hide

LSZH

Details ICAO LSZH (ZRH)
Name Zurich
Region Switzerland
Timezone Europe/Zurich (UTC+2.0)
Stats Elevation 1,416 ft / 432 m (AMSL)
Location 47.463489° 8.549964°
Runways 3
Magnetic Variation 2.400° E

METAR

LSZH 250250Z 00000KT 9999 MIFG NSC 10/09 Q1018 NOSIG

Decode

TAF

TAF LSZH 250225Z 2503/2609 VRB03KT CAVOK TX26/2515Z TN10/2504Z TN11/2604Z PROB30 2503/2505 8000 MIFG TEMPO 2506/2519 9999 FEW050

Decode

Departure Runways

ID Width Length Bearing (true) Bearing (mag) Surface Threshold Offset Overrun Length
10 197 ft / 60 m 8,180 ft / 2,493 m 95.98° 93.58° Concrete 0 ft / 0 m 197 ft / 60 m
14 197 ft / 60 m 10,816 ft / 3,297 m 137.30° 134.90° Concrete 492 ft / 150 m 0 ft / 0 m
16 197 ft / 60 m 12,137 ft / 3,699 m 155.00° 152.60° Concrete 0 ft / 0 m 197 ft / 60 m
28 197 ft / 60 m 8,180 ft / 2,493 m 276.01° 273.61° Concrete 0 ft / 0 m 197 ft / 60 m
32 197 ft / 60 m 10,816 ft / 3,297 m 317.32° 314.92° Concrete 0 ft / 0 m 197 ft / 60 m
34 197 ft / 60 m 12,137 ft / 3,699 m 335.01° 332.61° Concrete 1,542 ft / 470 m 0 ft / 0 m

LSMD

Details ICAO LSMD
Name Duebendorf
Region Switzerland
Timezone Europe/Zurich (UTC+2.0)
Stats Elevation 1,470 ft / 448 m (AMSL)
Location 47.398303° 8.644989°
Runways 2
Magnetic Variation 2.423° E

METAR

LSMD 250250Z AUTO 13001KT 9999NDV NCD 11/10 Q1019 RMK

Decode

TAF

Not found

Destination Runways

ID Width Length Bearing (true) Bearing (mag) Surface Threshold Offset Overrun Length
11 131 ft / 40 m 8,860 ft / 2,701 m 107.80° 105.38° Asphalt 427 ft / 130 m 0 ft / 0 m
11R 98 ft / 30 m 2,913 ft / 888 m 107.89° 105.47° Grass 0 ft / 0 m 0 ft / 0 m
29 131 ft / 40 m 8,860 ft / 2,701 m 287.83° 285.41° Asphalt 906 ft / 276 m 0 ft / 0 m
29L 98 ft / 30 m 2,913 ft / 888 m 287.90° 285.48° Grass 0 ft / 0 m 10 ft / 3 m

Approach Navaids

Runway Type Ident Frequency Range Bearing (true) Bearing (mag) Slope Elevation
29 Localiser IDU 111.15 MHz 18 nm / 33 km 288.31° 285.89° - 1,470 ft / 448 m (AMSL)
29 Glidescope IDU 111.15 MHz 10 nm / 19 km 287.82° 285.39° 4.50° 1,464 ft / 446 m (AMSL)
29 DME IDU 111.15 MHz 18 nm / 33 km - - - 1,464 ft / 446 m (AMSL)